createdAt,value
2023-05-10T00:00:24.709Z,6.72
2023-05-10T00:04:44.400Z,6.63
2023-05-10T00:08:46.581Z,6.66
2023-05-10T00:12:48.731Z,6.70
2023-05-10T00:16:51.002Z,6.68
2023-05-10T00:20:53.246Z,6.78
2023-05-10T00:24:55.482Z,6.81
2023-05-10T00:28:58.007Z,6.90
2023-05-10T00:33:00.201Z,6.93
2023-05-10T00:37:02.604Z,6.91
2023-05-10T00:41:05.057Z,6.91
2023-05-10T00:45:09.902Z,7.05
2023-05-10T00:49:12.532Z,7.09
2023-05-10T00:53:16.103Z,7.08
2023-05-10T00:57:19.266Z,7.05
2023-05-10T01:01:21.603Z,7.00
2023-05-10T01:05:24.021Z,6.94
2023-05-10T01:09:27.419Z,6.96
2023-05-10T01:13:38.340Z,6.92
2023-05-10T01:17:43.769Z,7.05
2023-05-10T01:22:16.696Z,6.98
2023-05-10T01:26:41.090Z,7.01
2023-05-10T01:31:25.367Z,6.94
2023-05-10T01:35:48.875Z,6.97
2023-05-10T01:39:58.905Z,6.98
2023-05-10T01:44:10.824Z,7.09
2023-05-10T01:48:15.443Z,7.09
2023-05-10T01:52:20.846Z,7.07
2023-05-10T01:56:27.174Z,7.06
2023-05-10T02:00:31.206Z,6.95
2023-05-10T02:04:36.388Z,6.96
2023-05-10T02:08:41.122Z,6.94
2023-05-10T02:12:47.099Z,6.87
2023-05-10T02:16:52.142Z,6.90
2023-05-10T02:20:56.420Z,6.75
2023-05-10T02:25:00.725Z,6.76
2023-05-10T02:29:06.630Z,6.73
2023-05-10T02:33:09.679Z,6.49
2023-05-10T02:37:14.188Z,6.44
2023-05-10T02:41:16.919Z,6.39
2023-05-10T02:45:24.631Z,6.34
2023-05-10T02:49:26.822Z,6.24
2023-05-10T02:53:34.257Z,6.20
2023-05-10T02:57:41.783Z,6.16
2023-05-10T03:01:43.898Z,6.02
2023-05-10T03:05:46.109Z,5.97
2023-05-10T03:09:49.855Z,5.91
2023-05-10T03:14:22.436Z,5.97
2023-05-10T03:18:33.444Z,5.87
2023-05-10T03:22:50.778Z,5.96
2023-05-10T03:26:56.542Z,5.95
2023-05-10T03:31:00.722Z,5.87
2023-05-10T03:35:08.613Z,5.95
2023-05-10T03:39:11.601Z,5.96
2023-05-10T03:43:14.401Z,6.08
2023-05-10T03:47:16.445Z,6.22
2023-05-10T03:51:18.300Z,6.34
2023-05-10T03:55:20.516Z,6.43
2023-05-10T03:59:22.554Z,6.41
2023-05-10T04:03:26.746Z,6.55
2023-05-10T04:07:29.056Z,6.69
2023-05-10T04:11:31.706Z,6.83
2023-05-10T04:15:33.837Z,6.95
2023-05-10T04:19:36.280Z,7.00
2023-05-10T04:23:38.537Z,7.15
2023-05-10T04:27:40.540Z,7.26
2023-05-10T04:31:42.563Z,7.42
2023-05-10T04:35:45.632Z,7.63
2023-05-10T04:39:47.939Z,7.69
2023-05-10T04:43:50.456Z,7.83
2023-05-10T04:47:52.517Z,8.01
2023-05-10T04:51:54.575Z,8.14
2023-05-10T04:55:56.895Z,8.26
2023-05-10T04:59:59.311Z,8.44
2023-05-10T05:04:01.604Z,8.57
2023-05-10T05:08:04.258Z,8.69
2023-05-10T05:12:06.697Z,8.87
2023-05-10T05:16:08.709Z,9.09
2023-05-10T05:20:11.753Z,9.32
2023-05-10T05:24:13.834Z,9.55
2023-05-10T05:28:15.833Z,9.73
2023-05-10T05:32:18.327Z,9.92
2023-05-10T05:36:21.377Z,10.20
2023-05-10T05:40:23.446Z,10.46
2023-05-10T05:44:25.713Z,10.75
2023-05-10T05:48:27.669Z,11.03
2023-05-10T05:52:29.676Z,11.06
2023-05-10T05:56:31.722Z,11.35
2023-05-10T06:04:36.056Z,12.03
2023-05-10T06:08:38.436Z,12.31
2023-05-10T06:12:40.390Z,12.54
2023-05-10T06:16:42.476Z,12.73
2023-05-10T06:20:44.583Z,12.77
2023-05-10T06:24:46.588Z,13.17
2023-05-10T06:28:48.679Z,13.48
2023-05-10T06:32:51.139Z,13.47
2023-05-10T06:36:53.238Z,13.81
2023-05-10T06:40:55.310Z,13.76
2023-05-10T06:44:57.416Z,14.06
2023-05-10T06:48:59.669Z,14.42
2023-05-10T06:53:02.830Z,14.46
2023-05-10T06:57:10.776Z,14.58
2023-05-10T07:01:18.549Z,15.02
2023-05-10T07:05:21.440Z,15.03
2023-05-10T07:09:25.460Z,15.02
2023-05-10T07:13:27.643Z,15.52
2023-05-10T07:17:29.752Z,15.64
2023-05-10T07:21:32.293Z,15.66
2023-05-10T07:25:34.324Z,15.67
2023-05-10T07:29:37.182Z,15.73
2023-05-10T07:33:39.355Z,15.97
2023-05-10T07:37:41.076Z,16.12
2023-05-10T07:41:43.163Z,16.18
2023-05-10T07:45:45.265Z,16.21
2023-05-10T07:49:47.331Z,15.93
2023-05-10T07:53:49.345Z,16.17
2023-05-10T07:57:51.395Z,16.14
2023-05-10T08:01:53.508Z,15.81
2023-05-10T08:05:55.663Z,15.95
2023-05-10T08:09:57.732Z,16.18
2023-05-10T08:13:59.960Z,16.39
2023-05-10T08:18:02.068Z,16.35
2023-05-10T08:22:04.218Z,16.35
2023-05-10T08:26:06.759Z,16.46
2023-05-10T08:30:09.569Z,16.63
2023-05-10T08:34:11.716Z,16.77
2023-05-10T08:38:13.894Z,17.14
2023-05-10T08:42:20.082Z,17.29
2023-05-10T08:46:23.994Z,17.25
2023-05-10T08:50:26.701Z,17.31
2023-05-10T08:54:28.935Z,17.54
2023-05-10T08:58:31.858Z,17.44
2023-05-10T09:02:34.148Z,17.66
2023-05-10T09:06:37.398Z,17.34
2023-05-10T09:10:40.860Z,17.55
2023-05-10T09:14:45.695Z,17.31
2023-05-10T09:18:47.924Z,17.59
2023-05-10T09:22:50.639Z,17.44
2023-05-10T09:26:52.733Z,17.81
2023-05-10T09:30:56.561Z,17.73
2023-05-10T09:35:07.627Z,17.79
2023-05-10T09:39:09.657Z,18.04
2023-05-10T09:43:11.792Z,18.12
2023-05-10T09:47:19.126Z,18.08
2023-05-10T09:51:21.678Z,18.21
2023-05-10T09:55:25.780Z,18.24
2023-05-10T09:59:29.302Z,18.17
2023-05-10T10:03:31.646Z,18.30
2023-05-10T10:07:34.469Z,18.41
2023-05-10T10:11:37.758Z,18.46
2023-05-10T10:15:40.546Z,18.23
2023-05-10T10:19:42.613Z,18.01
2023-05-10T10:23:45.152Z,18.26
2023-05-10T10:27:52.965Z,18.37
2023-05-10T10:32:12.614Z,18.39
2023-05-10T10:36:15.069Z,18.23
2023-05-10T10:40:34.453Z,18.85
2023-05-10T10:44:39.017Z,18.93
2023-05-10T10:49:10.989Z,18.72
2023-05-10T10:53:14.036Z,18.73
2023-05-10T10:57:16.413Z,18.66
2023-05-10T11:01:19.705Z,18.92
2023-05-10T11:05:24.854Z,19.21
2023-05-10T11:09:40.518Z,18.95
2023-05-10T11:13:44.802Z,18.94
2023-05-10T11:17:53.037Z,18.90
2023-05-10T11:22:04.189Z,19.02
2023-05-10T11:26:10.571Z,19.01
2023-05-10T11:30:13.438Z,19.06
2023-05-10T11:34:25.373Z,19.36
2023-05-10T11:38:27.344Z,19.70
2023-05-10T11:42:29.428Z,19.84
2023-05-10T11:46:31.606Z,19.95
2023-05-10T11:50:33.848Z,19.46
2023-05-10T11:54:36.208Z,19.74
2023-05-10T11:58:40.496Z,19.83
2023-05-10T12:02:42.917Z,20.17
2023-05-10T12:06:46.034Z,19.44
2023-05-10T12:10:48.348Z,19.43
2023-05-10T12:14:51.886Z,19.45
2023-05-10T12:18:57.296Z,19.26
2023-05-10T12:23:00.772Z,19.70
2023-05-10T12:27:08.329Z,19.39
2023-05-10T12:31:10.546Z,19.32
2023-05-10T12:35:12.591Z,19.33
2023-05-10T12:39:14.674Z,19.44
2023-05-10T12:43:16.672Z,19.85
2023-05-10T12:47:18.643Z,19.90
2023-05-10T12:51:22.956Z,19.42
2023-05-10T12:55:24.990Z,19.58
2023-05-10T12:59:26.995Z,19.64
2023-05-10T13:03:29.055Z,19.68
2023-05-10T13:07:31.118Z,19.53
2023-05-10T13:11:33.611Z,19.94
2023-05-10T13:15:36.038Z,20.12
2023-05-10T13:19:38.203Z,19.94
2023-05-10T13:23:40.358Z,19.54
2023-05-10T13:27:42.549Z,19.96
2023-05-10T13:31:44.821Z,19.53
2023-05-10T13:35:46.919Z,19.60
2023-05-10T13:39:49.301Z,19.74
2023-05-10T13:43:51.360Z,19.66
2023-05-10T13:47:53.423Z,19.69
2023-05-10T13:51:55.458Z,19.90
2023-05-10T13:56:36.289Z,19.81
2023-05-10T14:00:38.729Z,19.84
2023-05-10T14:04:40.910Z,20.03
2023-05-10T14:08:43.469Z,20.04
2023-05-10T14:12:46.060Z,20.07
2023-05-10T14:16:48.800Z,19.84
2023-05-10T14:20:51.310Z,19.74
2023-05-10T14:24:53.468Z,19.49
2023-05-10T14:28:55.676Z,19.73
2023-05-10T14:32:59.571Z,19.76
2023-05-10T14:37:02.176Z,19.70
2023-05-10T14:41:04.341Z,19.68
2023-05-10T14:45:06.763Z,19.44
2023-05-10T14:49:08.916Z,19.57
2023-05-10T14:53:53.732Z,19.30
2023-05-10T14:57:56.063Z,19.18
2023-05-10T15:01:58.889Z,18.97
2023-05-10T15:06:01.955Z,18.84
2023-05-10T15:10:04.996Z,18.78
2023-05-10T15:14:07.486Z,18.69
2023-05-10T15:18:10.980Z,18.75
2023-05-10T15:22:13.083Z,18.69
2023-05-10T15:26:15.101Z,18.73
2023-05-10T15:30:17.257Z,18.52
2023-05-10T15:34:19.776Z,18.26
2023-05-10T15:38:21.919Z,18.01
2023-05-10T15:42:23.943Z,18.27
2023-05-10T15:46:26.277Z,18.50
2023-05-10T15:50:28.689Z,18.05
2023-05-10T15:54:30.743Z,18.28
2023-05-10T15:58:32.327Z,18.44
2023-05-10T16:02:34.407Z,17.94
2023-05-10T16:06:37.869Z,17.72
2023-05-10T16:10:40.089Z,17.65
2023-05-10T16:14:41.784Z,17.46
2023-05-10T16:18:44.029Z,17.31
2023-05-10T16:22:46.271Z,16.94
2023-05-10T16:26:48.396Z,16.61
2023-05-10T16:30:50.384Z,16.49
2023-05-10T16:34:53.440Z,16.58
2023-05-10T16:38:55.695Z,16.45
2023-05-10T16:42:58.058Z,16.09
2023-05-10T16:47:00.257Z,16.00
2023-05-10T16:51:03.037Z,15.98
2023-05-10T16:55:05.677Z,15.89
2023-05-10T16:59:07.706Z,15.85
2023-05-10T17:03:09.816Z,15.87
2023-05-10T17:07:13.181Z,15.75
2023-05-10T17:11:15.228Z,15.63
2023-05-10T17:15:19.217Z,15.66
2023-05-10T17:19:23.028Z,15.51
2023-05-10T17:23:26.419Z,15.13
2023-05-10T17:27:30.137Z,15.18
2023-05-10T17:31:33.088Z,14.97
2023-05-10T17:35:35.229Z,14.81
2023-05-10T17:39:39.342Z,14.60
2023-05-10T17:43:42.021Z,14.51
2023-05-10T17:47:44.104Z,14.30
2023-05-10T17:51:48.112Z,14.28
2023-05-10T17:55:51.805Z,14.13
2023-05-10T17:59:53.850Z,13.94
2023-05-10T18:03:55.907Z,13.73
2023-05-10T18:07:57.881Z,13.57
2023-05-10T18:12:01.867Z,13.34
2023-05-10T18:16:05.988Z,13.14
2023-05-10T18:20:08.997Z,12.86
2023-05-10T18:24:11.139Z,12.64
2023-05-10T18:28:13.205Z,12.55
2023-05-10T18:32:14.980Z,12.38
2023-05-10T18:36:17.140Z,12.19
2023-05-10T18:40:19.621Z,12.03
2023-05-10T18:44:23.223Z,11.91
2023-05-10T18:48:25.536Z,11.80
2023-05-10T18:52:27.547Z,11.55
2023-05-10T18:56:29.638Z,11.57
2023-05-10T19:00:31.635Z,11.39
2023-05-10T19:04:33.684Z,11.32
2023-05-10T19:08:35.901Z,11.02
2023-05-10T19:12:38.048Z,10.88
2023-05-10T19:16:40.510Z,10.80
2023-05-10T19:20:46.461Z,10.70
2023-05-10T19:24:48.857Z,10.54
2023-05-10T19:28:52.383Z,10.53
2023-05-10T19:32:55.869Z,10.49
2023-05-10T19:36:58.750Z,10.42
2023-05-10T19:41:01.168Z,10.33
2023-05-10T19:45:03.428Z,10.30
2023-05-10T19:49:05.593Z,10.05
2023-05-10T19:53:07.683Z,9.99
2023-05-10T19:57:11.316Z,9.93
2023-05-10T20:01:14.110Z,9.84
2023-05-10T20:05:16.587Z,9.74
2023-05-10T20:09:18.771Z,9.76
2023-05-10T20:13:20.761Z,9.76
2023-05-10T20:17:22.851Z,9.70
2023-05-10T20:21:26.487Z,9.57
2023-05-10T20:25:28.574Z,9.65
2023-05-10T20:29:32.516Z,9.52
2023-05-10T20:33:34.513Z,9.46
2023-05-10T20:37:37.827Z,9.41
2023-05-10T20:41:39.920Z,9.39
2023-05-10T20:45:41.689Z,9.31
2023-05-10T20:49:44.068Z,9.29
2023-05-10T20:53:46.145Z,9.41
2023-05-10T20:57:48.192Z,9.47
2023-05-10T21:01:50.444Z,9.60
2023-05-10T21:05:52.660Z,9.68
2023-05-10T21:09:54.659Z,9.68
2023-05-10T21:13:57.135Z,9.79
2023-05-10T21:17:59.997Z,9.83
2023-05-10T21:22:02.122Z,9.81
2023-05-10T21:26:04.731Z,9.89
2023-05-10T21:30:09.029Z,9.94
2023-05-10T21:34:11.129Z,10.00
2023-05-10T21:38:13.228Z,9.98
2023-05-10T21:42:15.454Z,9.85
2023-05-10T21:46:17.552Z,9.91
2023-05-10T21:50:19.902Z,9.80
2023-05-10T21:54:22.126Z,9.73
2023-05-10T21:58:24.161Z,9.73
2023-05-10T22:02:26.205Z,9.76
2023-05-10T22:06:28.450Z,9.65
2023-05-10T22:10:30.518Z,9.49
2023-05-10T22:14:32.651Z,9.36
2023-05-10T22:18:34.794Z,9.30
2023-05-10T22:22:36.883Z,9.25
2023-05-10T22:26:38.964Z,9.24
2023-05-10T22:30:42.617Z,9.13
2023-05-10T22:34:44.695Z,9.09
2023-05-10T22:38:46.719Z,9.03
2023-05-10T22:42:49.178Z,8.89
2023-05-10T22:46:51.901Z,8.72
2023-05-10T22:50:54.049Z,8.72
2023-05-10T22:54:56.960Z,8.63
2023-05-10T22:58:58.987Z,8.50
2023-05-10T23:03:01.018Z,8.43
2023-05-10T23:07:03.112Z,8.24
2023-05-10T23:11:05.160Z,8.19
2023-05-10T23:15:07.503Z,8.19
2023-05-10T23:19:09.637Z,8.14
2023-05-10T23:23:11.606Z,8.06
2023-05-10T23:27:14.563Z,8.03
2023-05-10T23:31:16.843Z,7.89
2023-05-10T23:35:18.850Z,7.93
2023-05-10T23:39:20.873Z,7.86
2023-05-10T23:43:23.063Z,7.93
2023-05-10T23:47:25.043Z,7.79
2023-05-10T23:51:28.135Z,7.69
2023-05-10T23:55:30.210Z,7.67
2023-05-10T23:59:32.225Z,7.67
